Time;durP1;ratioP1;P1;durP2;ratioP2;P2;SDS_P1;SDS_P2;PMS_P1;PMS_P2;Temp;Humidity;BMP_temperature;BMP_pressure;BME280_temperature;BME280_humidity;BME280_pressure;Samples;Min_cycle;Max_cycle;Signal;HPM_P1;HPM_P2
2022/03/12 00:01:43;;;;;;;;;;;20.40;34.10;;;;;;5049665;28;19928;-43
2022/03/12 00:04:10;;;;;;;;;;;20.30;34.10;;;;;;5049643;28;19920;-42
2022/03/12 00:06:39;;;;;;;;;;;20.30;34.00;;;;;;5030526;28;19924;-44
2022/03/12 00:09:06;;;;;;;;;;;20.30;34.00;;;;;;5045875;28;19921;-44
2022/03/12 00:11:34;;;;;;;;;;;20.30;33.90;;;;;;5042172;28;19931;-42
2022/03/12 00:14:02;;;;;;;;;;;20.30;33.90;;;;;;5048427;28;20262;-43
2022/03/12 00:16:33;;;;;;;;;;;20.30;33.90;;;;;;5049393;28;19973;-42
2022/03/12 00:19:05;;;;;;;;;;;20.30;33.80;;;;;;5041901;28;20019;-46
2022/03/12 00:21:35;;;;;;;;;;;20.30;33.80;;;;;;5041906;28;20027;-42
2022/03/12 00:24:02;;;;;;;;;;;20.30;33.80;;;;;;5032116;28;19931;-42
2022/03/12 00:26:31;;;;;;;;;;;20.30;33.80;;;;;;5040322;28;19929;-45
2022/03/12 00:28:58;;;;;;;;;;;20.30;33.80;;;;;;5039506;28;19950;-44
2022/03/12 00:31:25;;;;;;;;;;;20.30;33.70;;;;;;5047927;28;19959;-45
2022/03/12 00:33:52;;;;;;;;;;;20.30;33.80;;;;;;5056714;28;19971;-43
2022/03/12 00:36:19;;;;;;;;;;;20.30;33.70;;;;;;5046199;28;19924;-42
2022/03/12 00:38:45;;;;;;;;;;;20.30;33.70;;;;;;5044130;28;19928;-43
2022/03/12 00:41:12;;;;;;;;;;;20.30;33.60;;;;;;5067261;28;19928;-42
2022/03/12 00:43:40;;;;;;;;;;;20.30;33.60;;;;;;5045363;28;19920;-42
2022/03/12 00:46:07;;;;;;;;;;;20.30;33.60;;;;;;5036111;28;19925;-42
2022/03/12 00:48:34;;;;;;;;;;;20.30;33.60;;;;;;5049163;28;19987;-42
2022/03/12 00:51:00;;;;;;;;;;;20.30;33.60;;;;;;5048143;28;19921;-42
2022/03/12 00:53:27;;;;;;;;;;;20.30;33.60;;;;;;5043960;28;20324;-44
2022/03/12 00:55:54;;;;;;;;;;;20.30;33.50;;;;;;5049926;28;19921;-42
2022/03/12 00:58:20;;;;;;;;;;;20.30;33.50;;;;;;5048754;28;19920;-42
2022/03/12 01:00:49;;;;;;;;;;;20.30;33.50;;;;;;5070093;28;19930;-44
2022/03/12 01:03:15;;;;;;;;;;;20.30;33.50;;;;;;5040123;28;19932;-48
2022/03/12 01:05:56;;;;;;;;;;;20.20;33.50;;;;;;5040090;28;20425;-43
2022/03/12 01:08:24;;;;;;;;;;;20.20;33.40;;;;;;5037343;28;20023;-43
2022/03/12 01:10:51;;;;;;;;;;;20.20;33.40;;;;;;5066876;28;19935;-43
2022/03/12 01:13:18;;;;;;;;;;;20.20;34.00;;;;;;5057352;28;20356;-44
2022/03/12 01:15:44;;;;;;;;;;;20.30;33.50;;;;;;5050922;28;20266;-44
2022/03/12 01:18:14;;;;;;;;;;;20.30;33.40;;;;;;5038651;28;19921;-45
2022/03/12 01:20:41;;;;;;;;;;;20.20;33.30;;;;;;5057870;28;19936;-42
2022/03/12 01:23:07;;;;;;;;;;;20.30;33.40;;;;;;5050858;28;19929;-43
2022/03/12 01:25:34;;;;;;;;;;;20.20;33.30;;;;;;5051513;28;19924;-45
2022/03/12 01:28:01;;;;;;;;;;;20.20;33.20;;;;;;5047995;28;20581;-44
2022/03/12 01:30:29;;;;;;;;;;;20.20;33.80;;;;;;5048558;28;19921;-42
2022/03/12 01:32:55;;;;;;;;;;;20.20;33.20;;;;;;5049916;28;20448;-42
2022/03/12 01:35:23;;;;;;;;;;;20.20;33.20;;;;;;5045139;28;19920;-44
2022/03/12 01:37:50;;;;;;;;;;;20.20;33.20;;;;;;5039738;28;19932;-44
2022/03/12 01:40:17;;;;;;;;;;;20.20;33.20;;;;;;5061741;28;19921;-43
2022/03/12 01:42:43;;;;;;;;;;;20.20;33.20;;;;;;5036355;28;20035;-43
2022/03/12 01:45:12;;;;;;;;;;;20.20;33.20;;;;;;5043782;28;19933;-45
2022/03/12 01:47:40;;;;;;;;;;;20.20;33.20;;;;;;5044871;28;20544;-43
2022/03/12 01:50:07;;;;;;;;;;;20.20;33.10;;;;;;5044624;28;20018;-42
2022/03/12 01:52:35;;;;;;;;;;;20.20;33.10;;;;;;5048788;28;20003;-42
2022/03/12 01:55:03;;;;;;;;;;;20.20;33.10;;;;;;5052491;28;19920;-44
2022/03/12 01:57:30;;;;;;;;;;;20.20;33.10;;;;;;5051919;28;20039;-44
2022/03/12 01:59:57;;;;;;;;;;;20.20;33.10;;;;;;5051038;28;19963;-45
2022/03/12 02:02:23;;;;;;;;;;;20.20;33.10;;;;;;5034065;28;19929;-47
2022/03/12 02:04:52;;;;;;;;;;;20.20;33.00;;;;;;5043216;28;20011;-47
2022/03/12 02:07:21;;;;;;;;;;;20.20;33.00;;;;;;5050490;28;19928;-45
2022/03/12 02:09:49;;;;;;;;;;;20.20;33.00;;;;;;5039336;28;20449;-44
2022/03/12 02:12:16;;;;;;;;;;;20.20;33.00;;;;;;5063926;28;20358;-46
2022/03/12 02:14:43;;;;;;;;;;;20.20;33.00;;;;;;5034093;28;20319;-43
2022/03/12 02:17:10;;;;;;;;;;;20.20;33.00;;;;;;5050795;28;19921;-42
2022/03/12 02:19:39;;;;;;;;;;;20.20;32.90;;;;;;5041297;28;20324;-45
2022/03/12 02:22:06;;;;;;;;;;;20.20;32.90;;;;;;5042379;28;20023;-45
2022/03/12 02:24:34;;;;;;;;;;;20.20;32.90;;;;;;5036070;28;19952;-44
2022/03/12 02:27:01;;;;;;;;;;;20.20;32.90;;;;;;5046018;28;20273;-44
2022/03/12 02:29:28;;;;;;;;;;;20.20;32.80;;;;;;5046948;28;19928;-47
2022/03/12 02:31:56;;;;;;;;;;;20.20;32.80;;;;;;5033371;28;19947;-43
2022/03/12 02:34:24;;;;;;;;;;;20.20;32.80;;;;;;5045363;28;19921;-46
2022/03/12 02:36:51;;;;;;;;;;;20.20;32.80;;;;;;5002733;28;1789754;-42
2022/03/12 02:39:18;;;;;;;;;;;20.20;32.80;;;;;;5068602;28;20024;-49
2022/03/12 02:41:46;;;;;;;;;;;20.10;32.70;;;;;;5038835;28;19931;-43
2022/03/12 02:44:17;;;;;;;;;;;20.20;32.70;;;;;;5047578;28;19920;-43
2022/03/12 02:46:46;;;;;;;;;;;20.20;32.70;;;;;;5048613;28;20015;-42
2022/03/12 02:49:13;;;;;;;;;;;20.20;32.70;;;;;;5043849;28;19956;-42
2022/03/12 02:51:40;;;;;;;;;;;20.20;32.70;;;;;;5045324;28;19990;-46
2022/03/12 02:54:07;;;;;;;;;;;20.20;32.70;;;;;;5060532;28;20353;-44
2022/03/12 02:56:35;;;;;;;;;;;20.10;32.60;;;;;;5045557;28;20027;-43
2022/03/12 02:59:07;;;;;;;;;;;20.10;32.60;;;;;;5051762;28;19971;-45
2022/03/12 03:01:34;;;;;;;;;;;20.10;32.50;;;;;;5038824;28;19932;-43
2022/03/12 03:04:01;;;;;;;;;;;20.10;32.50;;;;;;5039628;28;20293;-45
2022/03/12 03:06:28;;;;;;;;;;;20.10;32.50;;;;;;5046005;28;19970;-44
2022/03/12 03:08:57;;;;;;;;;;;20.10;32.50;;;;;;5050302;28;19920;-44
2022/03/12 03:11:29;;;;;;;;;;;20.10;32.50;;;;;;5037656;28;20183;-43
2022/03/12 03:13:55;;;;;;;;;;;20.10;32.50;;;;;;5059983;28;19943;-45
2022/03/12 03:16:24;;;;;;;;;;;20.10;32.50;;;;;;5042612;28;19925;-45
2022/03/12 03:18:53;;;;;;;;;;;20.10;32.50;;;;;;5050271;28;19970;-42
2022/03/12 03:21:20;;;;;;;;;;;20.10;32.50;;;;;;5044991;28;20006;-45
2022/03/12 03:23:46;;;;;;;;;;;20.10;32.50;;;;;;5031439;28;19928;-42
2022/03/12 03:26:14;;;;;;;;;;;20.10;32.50;;;;;;5036453;28;20393;-42
2022/03/12 03:28:41;;;;;;;;;;;20.10;32.50;;;;;;5064348;28;19936;-45
2022/03/12 03:31:08;;;;;;;;;;;20.10;32.50;;;;;;5049843;28;19931;-49
2022/03/12 03:33:39;;;;;;;;;;;20.10;32.50;;;;;;5046225;28;19997;-42
2022/03/12 03:36:05;;;;;;;;;;;20.10;32.50;;;;;;5055129;28;19932;-48
2022/03/12 03:38:32;;;;;;;;;;;20.10;32.40;;;;;;5045640;28;19928;-46
2022/03/12 03:40:59;;;;;;;;;;;20.10;32.40;;;;;;5062073;28;20019;-49
2022/03/12 03:43:26;;;;;;;;;;;20.10;32.40;;;;;;5049067;28;19928;-44
2022/03/12 03:45:53;;;;;;;;;;;20.10;32.40;;;;;;5041771;28;20013;-42
2022/03/12 03:48:20;;;;;;;;;;;20.10;32.40;;;;;;5041634;28;20266;-47
2022/03/12 03:50:48;;;;;;;;;;;20.10;32.40;;;;;;5036412;28;19931;-44
2022/03/12 03:53:15;;;;;;;;;;;20.10;32.30;;;;;;5046896;28;19935;-42
2022/03/12 03:55:43;;;;;;;;;;;20.10;32.30;;;;;;5068632;28;19943;-45
2022/03/12 03:58:09;;;;;;;;;;;20.10;32.30;;;;;;5047397;28;20187;-44
2022/03/12 04:00:36;;;;;;;;;;;20.10;32.30;;;;;;5067930;28;20277;-45
2022/03/12 04:03:06;;;;;;;;;;;20.10;32.30;;;;;;5046521;28;19921;-43
2022/03/12 04:05:34;;;;;;;;;;;20.10;32.30;;;;;;5046545;28;20305;-42
2022/03/12 04:08:02;;;;;;;;;;;20.10;32.20;;;;;;5043384;28;19951;-45
2022/03/12 04:10:29;;;;;;;;;;;20.10;32.80;;;;;;5051810;28;20380;-43
2022/03/12 04:12:55;;;;;;;;;;;20.10;32.20;;;;;;5040259;28;20394;-44
2022/03/12 04:15:24;;;;;;;;;;;20.10;32.20;;;;;;5043794;28;19974;-45
2022/03/12 04:17:51;;;;;;;;;;;20.10;32.20;;;;;;5047978;28;19928;-44
2022/03/12 04:20:18;;;;;;;;;;;20.10;32.20;;;;;;5037518;28;19943;-44
2022/03/12 04:22:44;;;;;;;;;;;20.10;32.10;;;;;;5064486;28;19927;-43
2022/03/12 04:25:13;;;;;;;;;;;20.10;32.20;;;;;;5041190;28;20239;-49
2022/03/12 04:27:42;;;;;;;;;;;20.10;32.10;;;;;;5036627;28;19975;-44
2022/03/12 04:30:09;;;;;;;;;;;20.10;32.10;;;;;;5045001;28;19933;-43
2022/03/12 04:32:36;;;;;;;;;;;20.10;32.10;;;;;;5057228;28;19936;-44
2022/03/12 04:35:04;;;;;;;;;;;20.10;32.10;;;;;;5044214;28;20232;-42
2022/03/12 04:37:31;;;;;;;;;;;20.10;32.10;;;;;;5049123;28;19921;-45
2022/03/12 04:39:58;;;;;;;;;;;20.00;32.00;;;;;;5051086;28;20401;-43
2022/03/12 04:42:26;;;;;;;;;;;20.10;32.00;;;;;;5054714;28;19973;-45
2022/03/12 04:44:53;;;;;;;;;;;20.10;32.00;;;;;;5030093;28;19925;-44
2022/03/12 04:47:20;;;;;;;;;;;20.00;32.00;;;;;;5065032;28;20338;-46
2022/03/12 04:49:47;;;;;;;;;;;20.10;32.00;;;;;;5049938;28;19924;-42
2022/03/12 04:52:18;;;;;;;;;;;20.10;32.00;;;;;;5041120;28;19925;-46
2022/03/12 04:54:44;;;;;;;;;;;20.10;31.90;;;;;;5035849;28;20278;-44
2022/03/12 04:57:11;;;;;;;;;;;20.00;31.90;;;;;;5049435;28;19959;-44
2022/03/12 04:59:39;;;;;;;;;;;20.00;31.80;;;;;;5062388;28;20600;-42
2022/03/12 05:02:09;;;;;;;;;;;20.00;31.90;;;;;;5048822;28;19981;-44
2022/03/12 05:04:37;;;;;;;;;;;20.00;31.80;;;;;;5053766;28;20017;-44
2022/03/12 05:07:04;;;;;;;;;;;20.10;31.90;;;;;;5036904;28;20015;-44
2022/03/12 05:09:31;;;;;;;;;;;20.00;31.80;;;;;;5046826;28;20357;-44
2022/03/12 05:12:01;;;;;;;;;;;20.00;31.80;;;;;;5048015;28;20419;-45
2022/03/12 05:14:28;;;;;;;;;;;20.10;31.90;;;;;;5046617;28;19925;-49
2022/03/12 05:16:57;;;;;;;;;;;20.00;31.80;;;;;;5060276;28;19928;-46
2022/03/12 05:19:24;;;;;;;;;;;20.00;31.70;;;;;;5064787;28;20013;-47
2022/03/12 05:21:51;;;;;;;;;;;20.00;31.80;;;;;;5058620;28;20291;-44
2022/03/12 05:24:18;;;;;;;;;;;20.00;31.70;;;;;;5061035;28;19931;-44
2022/03/12 05:26:45;;;;;;;;;;;20.00;31.70;;;;;;5056627;28;20281;-45
2022/03/12 05:29:12;;;;;;;;;;;20.00;31.70;;;;;;5053515;28;19974;-47
2022/03/12 05:31:39;;;;;;;;;;;20.00;31.70;;;;;;5042752;28;19952;-43
2022/03/12 05:34:06;;;;;;;;;;;20.00;31.70;;;;;;5049147;28;19927;-44
2022/03/12 05:36:34;;;;;;;;;;;20.00;31.70;;;;;;5047733;28;19929;-44
2022/03/12 05:39:00;;;;;;;;;;;20.00;31.70;;;;;;5058367;28;19988;-42
2022/03/12 05:41:34;;;;;;;;;;;20.00;31.70;;;;;;5058751;28;19928;-46
2022/03/12 05:44:01;;;;;;;;;;;20.00;31.60;;;;;;5050344;28;19927;-42
2022/03/12 05:46:29;;;;;;;;;;;20.00;31.60;;;;;;5056289;28;19952;-47
2022/03/12 05:48:57;;;;;;;;;;;20.00;31.60;;;;;;5048566;28;19925;-44
2022/03/12 05:51:25;;;;;;;;;;;20.00;31.60;;;;;;5041817;28;19986;-44
2022/03/12 05:53:52;;;;;;;;;;;20.00;31.60;;;;;;5051395;28;19920;-44
2022/03/12 05:56:18;;;;;;;;;;;20.00;31.60;;;;;;5039957;28;20354;-44
2022/03/12 05:58:45;;;;;;;;;;;20.00;31.60;;;;;;5049019;28;20005;-48
2022/03/12 06:01:12;;;;;;;;;;;20.00;31.50;;;;;;5063815;28;19931;-46
2022/03/12 06:03:38;;;;;;;;;;;20.00;31.50;;;;;;5047729;28;19940;-44
2022/03/12 06:06:05;;;;;;;;;;;20.00;31.50;;;;;;5043464;28;20354;-44
2022/03/12 06:08:34;;;;;;;;;;;20.00;31.50;;;;;;5047535;28;20369;-42
2022/03/12 06:11:01;;;;;;;;;;;20.00;31.50;;;;;;5042833;28;19927;-42
2022/03/12 06:13:28;;;;;;;;;;;20.00;31.40;;;;;;5032804;28;19928;-45
2022/03/12 06:15:58;;;;;;;;;;;20.00;31.50;;;;;;5044454;28;19924;-44
2022/03/12 06:18:26;;;;;;;;;;;20.00;31.40;;;;;;5036569;28;20019;-46
2022/03/12 06:20:53;;;;;;;;;;;20.00;31.40;;;;;;5043187;28;19928;-46
2022/03/12 06:23:20;;;;;;;;;;;20.00;31.40;;;;;;5045652;28;19980;-45
2022/03/12 06:25:48;;;;;;;;;;;20.00;31.40;;;;;;5041701;28;19920;-42
2022/03/12 06:28:14;;;;;;;;;;;20.00;31.30;;;;;;5050592;28;19974;-48
2022/03/12 06:30:41;;;;;;;;;;;20.00;31.30;;;;;;5050526;28;19991;-43
2022/03/12 06:33:09;;;;;;;;;;;20.00;31.40;;;;;;5043091;28;20406;-44
2022/03/12 06:35:35;;;;;;;;;;;20.00;31.30;;;;;;5041850;28;20366;-46
2022/03/12 06:38:02;;;;;;;;;;;20.00;31.30;;;;;;5040704;28;20282;-42
2022/03/12 06:40:29;;;;;;;;;;;20.00;31.30;;;;;;5035735;28;20361;-46
2022/03/12 06:42:59;;;;;;;;;;;20.00;31.20;;;;;;5049872;28;19967;-47
2022/03/12 06:45:25;;;;;;;;;;;20.00;31.20;;;;;;5050888;28;19971;-43
2022/03/12 06:47:53;;;;;;;;;;;20.00;31.20;;;;;;5049897;28;19920;-46
2022/03/12 06:50:21;;;;;;;;;;;20.00;31.20;;;;;;5046559;28;19932;-50
2022/03/12 06:52:48;;;;;;;;;;;20.00;31.20;;;;;;5041890;28;19983;-46
2022/03/12 06:55:15;;;;;;;;;;;20.00;31.20;;;;;;5055643;28;19939;-48
2022/03/12 06:57:42;;;;;;;;;;;20.00;31.20;;;;;;5044531;28;19939;-44
2022/03/12 07:00:13;;;;;;;;;;;20.00;31.20;;;;;;5061768;28;19956;-48
2022/03/12 07:02:40;;;;;;;;;;;20.00;31.20;;;;;;5046972;28;19935;-44
2022/03/12 07:05:07;;;;;;;;;;;20.00;31.20;;;;;;5048283;28;19966;-44
2022/03/12 07:07:34;;;;;;;;;;;20.00;31.10;;;;;;5063953;28;20007;-46
2022/03/12 07:10:01;;;;;;;;;;;20.00;31.20;;;;;;5044658;28;19990;-44
2022/03/12 07:12:27;;;;;;;;;;;20.00;31.10;;;;;;5044490;28;20084;-45
2022/03/12 07:14:54;;;;;;;;;;;20.00;31.20;;;;;;5048026;28;19928;-44
2022/03/12 07:17:22;;;;;;;;;;;20.00;31.10;;;;;;5064302;28;19927;-44
2022/03/12 07:19:50;;;;;;;;;;;20.00;31.10;;;;;;5042163;28;20362;-42
2022/03/12 07:22:17;;;;;;;;;;;20.00;31.10;;;;;;5049208;28;20373;-43
2022/03/12 07:24:44;;;;;;;;;;;20.00;31.10;;;;;;5046468;28;19927;-43
2022/03/12 07:27:12;;;;;;;;;;;20.00;31.10;;;;;;5039384;28;19920;-44
2022/03/12 07:29:39;;;;;;;;;;;20.00;31.00;;;;;;5058512;28;19939;-42
2022/03/12 07:32:06;;;;;;;;;;;20.00;31.00;;;;;;5045818;28;19920;-44
2022/03/12 07:34:34;;;;;;;;;;;20.00;31.00;;;;;;5039732;28;20278;-42
2022/03/12 07:37:01;;;;;;;;;;;20.00;31.00;;;;;;5055841;28;19928;-42
2022/03/12 07:39:28;;;;;;;;;;;20.00;31.00;;;;;;5041588;28;19963;-45
2022/03/12 07:41:55;;;;;;;;;;;20.00;30.90;;;;;;5055965;28;20489;-42
2022/03/12 07:44:22;;;;;;;;;;;20.00;30.90;;;;;;5055651;28;19932;-43
2022/03/12 07:46:49;;;;;;;;;;;20.00;30.90;;;;;;5039301;28;20020;-45
2022/03/12 07:49:16;;;;;;;;;;;20.00;30.90;;;;;;5041235;28;20261;-44
2022/03/12 07:51:44;;;;;;;;;;;20.00;30.90;;;;;;5038655;28;20023;-46
2022/03/12 07:54:13;;;;;;;;;;;20.00;30.90;;;;;;5054903;28;19946;-44
2022/03/12 07:56:39;;;;;;;;;;;20.00;30.90;;;;;;5062390;28;19928;-46
2022/03/12 07:59:06;;;;;;;;;;;20.00;30.90;;;;;;5040412;28;19927;-48
2022/03/12 08:01:33;;;;;;;;;;;20.00;30.90;;;;;;5052819;28;19963;-45
2022/03/12 08:04:01;;;;;;;;;;;20.00;30.90;;;;;;5038021;28;19921;-46
2022/03/12 08:06:28;;;;;;;;;;;20.00;30.90;;;;;;5058102;28;19928;-43
2022/03/12 08:08:56;;;;;;;;;;;20.00;30.90;;;;;;5033786;28;19929;-46
2022/03/12 08:11:28;;;;;;;;;;;20.00;30.90;;;;;;5038892;28;19955;-42
2022/03/12 08:14:01;;;;;;;;;;;20.00;30.90;;;;;;5041840;28;19928;-45
2022/03/12 08:16:29;;;;;;;;;;;20.00;30.90;;;;;;5061032;28;20388;-43
2022/03/12 08:18:55;;;;;;;;;;;20.00;30.90;;;;;;5058196;28;19920;-45
2022/03/12 08:21:22;;;;;;;;;;;20.00;30.90;;;;;;5039076;28;19970;-42
2022/03/12 08:23:49;;;;;;;;;;;20.00;30.80;;;;;;5040569;28;19925;-43
2022/03/12 08:26:18;;;;;;;;;;;20.00;30.80;;;;;;5040532;28;19925;-45
2022/03/12 08:28:45;;;;;;;;;;;20.00;30.80;;;;;;5057403;28;19956;-46
2022/03/12 08:31:11;;;;;;;;;;;20.00;30.80;;;;;;5037987;28;19921;-42
2022/03/12 08:33:38;;;;;;;;;;;20.00;30.80;;;;;;5037345;28;19924;-46
2022/03/12 08:36:05;;;;;;;;;;;20.00;30.80;;;;;;5036802;28;20455;-44
2022/03/12 08:38:34;;;;;;;;;;;20.00;30.80;;;;;;5038705;28;19939;-42
2022/03/12 08:41:02;;;;;;;;;;;20.00;30.80;;;;;;5057037;28;20004;-42
2022/03/12 08:43:30;;;;;;;;;;;20.00;30.80;;;;;;5038826;28;20358;-42
2022/03/12 08:45:59;;;;;;;;;;;20.00;30.80;;;;;;5048327;28;20289;-46
2022/03/12 08:48:28;;;;;;;;;;;20.00;30.80;;;;;;5044527;28;20030;-46
2022/03/12 08:50:55;;;;;;;;;;;20.00;30.80;;;;;;5049049;28;19928;-47
2022/03/12 08:53:22;;;;;;;;;;;20.00;30.80;;;;;;5046104;28;20285;-46
2022/03/12 08:55:48;;;;;;;;;;;20.00;30.80;;;;;;5041730;28;19921;-46
2022/03/12 08:58:15;;;;;;;;;;;20.00;30.80;;;;;;5031097;28;20425;-46
2022/03/12 09:00:44;;;;;;;;;;;20.00;30.90;;;;;;5048410;28;19924;-45
2022/03/12 09:03:11;;;;;;;;;;;20.00;30.90;;;;;;5036575;28;20114;-44
2022/03/12 09:05:38;;;;;;;;;;;20.00;30.90;;;;;;5046580;28;20400;-43
2022/03/12 09:08:05;;;;;;;;;;;20.00;30.90;;;;;;5062134;28;19924;-42
2022/03/12 09:10:32;;;;;;;;;;;20.00;31.00;;;;;;5045663;28;20005;-44
2022/03/12 09:12:59;;;;;;;;;;;20.00;31.00;;;;;;5041868;28;19944;-45
2022/03/12 09:15:26;;;;;;;;;;;20.00;31.00;;;;;;5033985;28;19928;-44
2022/03/12 09:17:54;;;;;;;;;;;20.00;31.00;;;;;;5040960;28;20374;-46
2022/03/12 09:20:21;;;;;;;;;;;20.00;31.10;;;;;;5045999;28;20261;-46
2022/03/12 09:22:49;;;;;;;;;;;20.00;31.00;;;;;;5057591;28;19966;-43
2022/03/12 09:25:16;;;;;;;;;;;20.00;31.10;;;;;;5059835;28;20420;-42
2022/03/12 09:27:44;;;;;;;;;;;20.00;31.20;;;;;;5051682;28;19940;-45
2022/03/12 09:30:14;;;;;;;;;;;20.00;31.20;;;;;;5040949;28;19921;-43
2022/03/12 09:32:41;;;;;;;;;;;20.00;31.30;;;;;;5058022;28;20011;-47
2022/03/12 09:35:09;;;;;;;;;;;20.00;31.30;;;;;;5042554;28;19964;-45
2022/03/12 09:37:38;;;;;;;;;;;20.00;31.40;;;;;;5042009;28;20256;-44
2022/03/12 09:40:05;;;;;;;;;;;20.00;31.40;;;;;;5046360;28;20012;-42
2022/03/12 09:42:32;;;;;;;;;;;20.00;31.40;;;;;;5047103;28;20184;-44
2022/03/12 09:44:59;;;;;;;;;;;20.00;31.40;;;;;;5041961;28;20381;-43
2022/03/12 09:47:25;;;;;;;;;;;20.00;31.50;;;;;;5049941;28;19927;-45
2022/03/12 09:49:52;;;;;;;;;;;20.00;31.50;;;;;;5038632;28;19921;-44
2022/03/12 09:52:21;;;;;;;;;;;20.00;31.50;;;;;;5038355;28;19948;-46
2022/03/12 09:54:49;;;;;;;;;;;20.00;31.50;;;;;;5039458;28;19962;-42
2022/03/12 09:57:16;;;;;;;;;;;20.00;31.50;;;;;;5056302;28;20698;-42
2022/03/12 09:59:44;;;;;;;;;;;20.00;31.50;;;;;;5058684;28;19926;-43
2022/03/12 10:02:11;;;;;;;;;;;20.00;31.60;;;;;;5052304;28;20306;-45
2022/03/12 10:04:38;;;;;;;;;;;20.00;31.60;;;;;;5043115;28;19975;-43
2022/03/12 10:07:09;;;;;;;;;;;20.00;31.60;;;;;;5032876;28;20007;-42
2022/03/12 10:09:37;;;;;;;;;;;20.00;31.60;;;;;;5057880;28;19974;-45
2022/03/12 10:12:05;;;;;;;;;;;20.00;31.60;;;;;;5064420;28;19929;-42
2022/03/12 10:14:31;;;;;;;;;;;20.10;31.70;;;;;;5039229;28;19927;-44
2022/03/12 10:17:00;;;;;;;;;;;20.00;31.60;;;;;;5056501;28;19986;-43
2022/03/12 10:19:27;;;;;;;;;;;20.10;31.70;;;;;;5043879;28;20003;-43
2022/03/12 10:21:54;;;;;;;;;;;20.10;31.70;;;;;;5041208;28;19932;-42
2022/03/12 10:24:21;;;;;;;;;;;20.10;31.80;;;;;;5064275;28;19920;-43
2022/03/12 10:26:49;;;;;;;;;;;20.10;31.80;;;;;;5063726;28;19963;-44
2022/03/12 10:29:16;;;;;;;;;;;20.10;31.80;;;;;;5050778;28;19963;-43
2022/03/12 10:31:43;;;;;;;;;;;20.10;31.80;;;;;;5050641;28;20001;-43
2022/03/12 10:34:13;;;;;;;;;;;20.10;31.80;;;;;;5048374;28;20366;-42
2022/03/12 10:36:40;;;;;;;;;;;20.10;31.80;;;;;;5050854;28;19928;-43
2022/03/12 10:39:07;;;;;;;;;;;20.10;31.80;;;;;;5046264;28;19920;-48
2022/03/12 10:41:36;;;;;;;;;;;20.10;31.80;;;;;;5044783;28;20324;-45
2022/03/12 10:44:05;;;;;;;;;;;20.10;31.80;;;;;;5056737;28;19997;-45
2022/03/12 10:46:32;;;;;;;;;;;20.10;31.90;;;;;;5048954;28;20360;-43
2022/03/12 10:48:59;;;;;;;;;;;20.10;31.80;;;;;;5047908;28;20011;-46
2022/03/12 10:51:25;;;;;;;;;;;20.10;31.80;;;;;;5038458;28;19924;-42
2022/03/12 10:53:54;;;;;;;;;;;20.10;31.80;;;;;;5057945;28;19931;-46
2022/03/12 10:56:21;;;;;;;;;;;20.10;31.80;;;;;;5061834;28;19925;-43
2022/03/12 10:58:48;;;;;;;;;;;20.10;31.80;;;;;;5046217;28;20231;-42
2022/03/12 11:01:23;;;;;;;;;;;20.10;31.90;;;;;;5042561;28;19924;-42
2022/03/12 11:03:50;;;;;;;;;;;20.10;31.90;;;;;;5067601;28;19920;-42
2022/03/12 11:06:17;;;;;;;;;;;20.10;31.90;;;;;;5042646;28;19920;-42
2022/03/12 11:08:44;;;;;;;;;;;20.10;31.90;;;;;;5054178;28;19952;-47
2022/03/12 11:11:11;;;;;;;;;;;20.10;31.90;;;;;;5046810;28;19994;-46
2022/03/12 11:13:40;;;;;;;;;;;20.10;31.90;;;;;;5065167;28;19952;-47
2022/03/12 11:16:12;;;;;;;;;;;20.10;31.90;;;;;;5038762;28;19921;-42
2022/03/12 11:18:41;;;;;;;;;;;20.10;31.90;;;;;;5043989;28;19924;-42
2022/03/12 11:21:07;;;;;;;;;;;20.10;31.90;;;;;;5035049;28;20094;-42
2022/03/12 11:23:36;;;;;;;;;;;20.10;31.90;;;;;;5037219;28;19928;-42
2022/03/12 11:26:06;;;;;;;;;;;20.10;31.90;;;;;;5050063;28;20334;-41
2022/03/12 11:28:35;;;;;;;;;;;20.10;31.90;;;;;;5051778;28;19925;-42
2022/03/12 11:31:02;;;;;;;;;;;20.10;32.00;;;;;;5045086;28;20042;-44
2022/03/12 11:33:29;;;;;;;;;;;20.10;32.00;;;;;;5042971;28;19925;-45
2022/03/12 11:36:00;;;;;;;;;;;20.10;32.00;;;;;;5044703;28;19931;-43
2022/03/12 11:38:27;;;;;;;;;;;20.10;31.90;;;;;;5044595;28;19956;-44
2022/03/12 11:41:03;;;;;;;;;;;20.10;32.00;;;;;;5063496;28;19948;-42
2022/03/12 11:43:31;;;;;;;;;;;20.10;32.00;;;;;;5041226;28;19929;-42
2022/03/12 11:45:59;;;;;;;;;;;20.10;31.90;;;;;;5059720;28;20437;-42
2022/03/12 11:48:26;;;;;;;;;;;20.10;32.00;;;;;;5066220;28;20016;-43
2022/03/12 11:50:53;;;;;;;;;;;20.10;32.00;;;;;;5048615;28;19928;-42
2022/03/12 11:53:21;;;;;;;;;;;20.10;31.90;;;;;;5061923;28;20168;-43
2022/03/12 11:55:50;;;;;;;;;;;20.10;32.00;;;;;;5049594;28;19966;-42
2022/03/12 11:58:17;;;;;;;;;;;20.20;32.10;;;;;;5048434;28;19927;-44
2022/03/12 12:00:44;;;;;;;;;;;20.20;32.00;;;;;;5064180;28;19925;-41
2022/03/12 12:03:12;;;;;;;;;;;20.20;32.10;;;;;;5043558;28;20019;-48
2022/03/12 12:05:41;;;;;;;;;;;20.10;32.00;;;;;;5039588;28;19927;-43
2022/03/12 12:08:08;;;;;;;;;;;20.10;32.00;;;;;;5066669;28;19986;-47
2022/03/12 12:10:41;;;;;;;;;;;20.10;32.00;;;;;;5040057;28;19920;-44
2022/03/12 12:13:08;;;;;;;;;;;20.10;32.00;;;;;;5039020;28;19927;-43
2022/03/12 12:15:36;;;;;;;;;;;20.10;32.00;;;;;;5039160;28;19935;-42
2022/03/12 12:18:03;;;;;;;;;;;20.10;32.00;;;;;;5044606;28;19924;-44
2022/03/12 12:20:30;;;;;;;;;;;20.20;32.10;;;;;;5049065;28;20445;-44
2022/03/12 12:23:00;;;;;;;;;;;20.10;32.00;;;;;;5047723;28;19920;-42
2022/03/12 12:25:27;;;;;;;;;;;20.20;32.10;;;;;;5049157;28;19932;-44
2022/03/12 12:27:56;;;;;;;;;;;20.20;32.10;;;;;;5049871;28;20373;-46
2022/03/12 12:30:29;;;;;;;;;;;20.10;32.00;;;;;;5048935;28;19927;-47
2022/03/12 12:32:56;;;;;;;;;;;20.20;32.20;;;;;;5038616;28;20023;-42
2022/03/12 12:35:23;;;;;;;;;;;20.10;32.00;;;;;;5042042;28;19927;-44
2022/03/12 12:37:51;;;;;;;;;;;20.20;32.10;;;;;;5047921;28;19958;-43
2022/03/12 12:40:25;;;;;;;;;;;20.10;32.00;;;;;;5039586;28;20019;-44
2022/03/12 12:42:52;;;;;;;;;;;20.10;32.10;;;;;;5029647;28;19920;-47
2022/03/12 12:45:21;;;;;;;;;;;20.10;32.00;;;;;;5067838;28;19920;-47
2022/03/12 12:47:49;;;;;;;;;;;20.10;32.10;;;;;;5054575;28;19933;-46
2022/03/12 12:50:20;;;;;;;;;;;20.20;32.20;;;;;;5044786;28;19920;-44
2022/03/12 12:53:14;;;;;;;;;;;20.10;32.10;;;;;;5039095;28;19963;-42
2022/03/12 12:55:41;;;;;;;;;;;20.20;32.20;;;;;;5011944;28;19928;-43
2022/03/12 12:58:08;;;;;;;;;;;20.20;32.20;;;;;;5069788;28;19931;-43
2022/03/12 13:00:38;;;;;;;;;;;20.20;32.20;;;;;;5052594;28;19970;-43
2022/03/12 13:03:09;;;;;;;;;;;20.10;32.10;;;;;;5044890;28;19924;-42
2022/03/12 13:05:42;;;;;;;;;;;20.20;32.20;;;;;;5037356;28;20321;-44
2022/03/12 13:08:09;;;;;;;;;;;20.20;32.20;;;;;;5040500;28;20431;-47
2022/03/12 13:10:36;;;;;;;;;;;20.20;32.20;;;;;;5049777;28;19920;-44
2022/03/12 13:13:09;;;;;;;;;;;20.20;32.20;;;;;;5059271;28;19921;-44
2022/03/12 13:15:39;;;;;;;;;;;20.20;32.20;;;;;;5054946;28;20011;-45
2022/03/12 13:18:11;;;;;;;;;;;20.20;32.20;;;;;;5052104;28;20015;-44
2022/03/12 13:20:42;;;;;;;;;;;20.20;32.20;;;;;;5048310;28;20383;-42
2022/03/12 13:23:09;;;;;;;;;;;20.20;32.20;;;;;;5037531;28;19927;-45
2022/03/12 13:25:48;;;;;;;;;;;20.20;32.30;;;;;;5065666;28;19920;-46
2022/03/12 13:28:35;;;;;;;;;;;20.20;32.30;;;;;;5050639;28;19964;-45
2022/03/12 13:31:08;;;;;;;;;;;20.20;32.30;;;;;;5065984;28;19967;-43
2022/03/12 13:33:35;;;;;;;;;;;20.20;32.30;;;;;;5053668;28;19971;-44
2022/03/12 13:36:02;;;;;;;;;;;20.20;32.30;;;;;;5051003;28;20028;-46
2022/03/12 13:38:28;;;;;;;;;;;20.20;32.30;;;;;;5060862;28;19925;-42
2022/03/12 13:40:55;;;;;;;;;;;20.20;32.30;;;;;;5032327;28;20243;-47
2022/03/12 13:43:25;;;;;;;;;;;20.20;32.30;;;;;;5040641;28;20407;-45
2022/03/12 13:46:01;;;;;;;;;;;20.20;32.30;;;;;;5064158;28;20023;-46
2022/03/12 13:48:30;;;;;;;;;;;20.20;32.30;;;;;;5052984;28;20273;-48
2022/03/12 13:50:57;;;;;;;;;;;20.20;32.30;;;;;;5062904;28;20376;-42
2022/03/12 13:53:27;;;;;;;;;;;20.20;32.30;;;;;;5041493;28;19920;-42
2022/03/12 13:56:01;;;;;;;;;;;20.20;32.30;;;;;;5044045;28;19925;-44
2022/03/12 13:58:29;;;;;;;;;;;20.20;32.30;;;;;;5048934;28;20348;-43
2022/03/12 14:00:57;;;;;;;;;;;20.20;32.40;;;;;;5046590;28;19927;-43
2022/03/12 14:03:24;;;;;;;;;;;20.20;32.30;;;;;;5047590;28;19928;-44
2022/03/12 14:05:52;;;;;;;;;;;20.20;32.40;;;;;;5037573;28;19964;-42
2022/03/12 14:08:20;;;;;;;;;;;20.20;32.40;;;;;;5044475;28;19921;-44
2022/03/12 14:10:47;;;;;;;;;;;20.20;32.40;;;;;;5043702;28;20407;-45
2022/03/12 14:13:16;;;;;;;;;;;20.20;32.40;;;;;;5035109;28;20278;-42
2022/03/12 14:15:42;;;;;;;;;;;20.20;32.40;;;;;;5064083;28;19945;-43
2022/03/12 14:18:10;;;;;;;;;;;20.20;32.40;;;;;;5048024;28;19920;-45
2022/03/12 14:20:36;;;;;;;;;;;20.20;32.40;;;;;;5050016;28;19933;-43